sensor_id;sensor_type;location;lat;lon;timestamp;P1;durP1;ratioP1;P2;durP2;ratioP2
74551;SDS011;63025;55.472;38.432;2022-11-11T00:02:09;29.88;;;15.15;;
74551;SDS011;63025;55.472;38.432;2022-11-11T00:04:53;32.83;;;17.50;;
74551;SDS011;63025;55.472;38.432;2022-11-11T00:07:38;34.00;;;16.55;;
74551;SDS011;63025;55.472;38.432;2022-11-11T00:10:22;34.25;;;16.92;;
74551;SDS011;63025;55.472;38.432;2022-11-11T00:13:06;33.72;;;17.02;;
74551;SDS011;63025;55.472;38.432;2022-11-11T00:15:51;34.55;;;16.17;;
74551;SDS011;63025;55.472;38.432;2022-11-11T00:18:36;33.55;;;16.48;;
74551;SDS011;63025;55.472;38.432;2022-11-11T00:21:39;29.45;;;16.25;;
74551;SDS011;63025;55.472;38.432;2022-11-11T00:24:33;33.30;;;15.65;;
74551;SDS011;63025;55.472;38.432;2022-11-11T00:27:37;32.33;;;16.27;;
74551;SDS011;63025;55.472;38.432;2022-11-11T00:30:22;32.08;;;16.15;;
74551;SDS011;63025;55.472;38.432;2022-11-11T00:33:06;35.63;;;17.35;;
74551;SDS011;63025;55.472;38.432;2022-11-11T00:35:52;33.90;;;16.67;;
74551;SDS011;63025;55.472;38.432;2022-11-11T00:38:37;34.60;;;17.08;;
74551;SDS011;63025;55.472;38.432;2022-11-11T00:41:32;29.42;;;16.17;;
74551;SDS011;63025;55.472;38.432;2022-11-11T00:44:16;37.05;;;17.35;;
74551;SDS011;63025;55.472;38.432;2022-11-11T00:47:01;28.65;;;16.25;;
74551;SDS011;63025;55.472;38.432;2022-11-11T00:50:05;31.40;;;16.27;;
74551;SDS011;63025;55.472;38.432;2022-11-11T00:53:13;31.83;;;16.60;;
74551;SDS011;63025;55.472;38.432;2022-11-11T00:55:59;36.30;;;18.15;;
74551;SDS011;63025;55.472;38.432;2022-11-11T00:58:43;35.13;;;17.95;;
74551;SDS011;63025;55.472;38.432;2022-11-11T01:01:28;37.20;;;17.77;;
74551;SDS011;63025;55.472;38.432;2022-11-11T01:04:13;32.80;;;18.25;;
74551;SDS011;63025;55.472;38.432;2022-11-11T01:06:57;38.22;;;18.33;;
74551;SDS011;63025;55.472;38.432;2022-11-11T01:09:41;34.22;;;17.48;;
74551;SDS011;63025;55.472;38.432;2022-11-11T01:12:26;38.78;;;18.33;;
74551;SDS011;63025;55.472;38.432;2022-11-11T01:15:10;38.03;;;18.35;;
74551;SDS011;63025;55.472;38.432;2022-11-11T01:17:54;35.38;;;18.45;;
74551;SDS011;63025;55.472;38.432;2022-11-11T01:20:39;42.28;;;20.08;;
74551;SDS011;63025;55.472;38.432;2022-11-11T01:23:24;37.22;;;20.00;;
74551;SDS011;63025;55.472;38.432;2022-11-11T01:26:13;43.80;;;20.80;;
74551;SDS011;63025;55.472;38.432;2022-11-11T01:29:05;43.58;;;19.10;;
74551;SDS011;63025;55.472;38.432;2022-11-11T01:31:49;42.38;;;20.40;;
74551;SDS011;63025;55.472;38.432;2022-11-11T01:34:34;45.10;;;21.10;;
74551;SDS011;63025;55.472;38.432;2022-11-11T01:37:18;49.50;;;20.15;;
74551;SDS011;63025;55.472;38.432;2022-11-11T01:40:02;48.00;;;20.60;;
74551;SDS011;63025;55.472;38.432;2022-11-11T01:42:51;46.38;;;21.10;;
74551;SDS011;63025;55.472;38.432;2022-11-11T01:45:57;45.22;;;20.42;;
74551;SDS011;63025;55.472;38.432;2022-11-11T01:48:50;42.60;;;19.55;;
74551;SDS011;63025;55.472;38.432;2022-11-11T01:55:11;40.70;;;19.52;;
74551;SDS011;63025;55.472;38.432;2022-11-11T01:58:06;43.85;;;20.65;;
74551;SDS011;63025;55.472;38.432;2022-11-11T02:00:55;45.70;;;19.75;;
74551;SDS011;63025;55.472;38.432;2022-11-11T02:03:41;44.08;;;19.85;;
74551;SDS011;63025;55.472;38.432;2022-11-11T02:06:51;42.58;;;19.55;;
74551;SDS011;63025;55.472;38.432;2022-11-11T02:09:38;42.65;;;19.08;;
74551;SDS011;63025;55.472;38.432;2022-11-11T02:12:29;41.13;;;19.13;;
74551;SDS011;63025;55.472;38.432;2022-11-11T02:15:52;39.28;;;18.83;;
74551;SDS011;63025;55.472;38.432;2022-11-11T02:18:36;39.83;;;19.23;;
74551;SDS011;63025;55.472;38.432;2022-11-11T02:21:54;42.08;;;18.67;;
74551;SDS011;63025;55.472;38.432;2022-11-11T02:24:35;36.75;;;18.50;;
74551;SDS011;63025;55.472;38.432;2022-11-11T02:27:21;38.83;;;18.42;;
74551;SDS011;63025;55.472;38.432;2022-11-11T02:30:08;40.22;;;18.60;;
74551;SDS011;63025;55.472;38.432;2022-11-11T02:32:58;37.67;;;16.80;;
74551;SDS011;63025;55.472;38.432;2022-11-11T02:35:43;35.90;;;16.58;;
74551;SDS011;63025;55.472;38.432;2022-11-11T02:38:41;40.30;;;17.75;;
74551;SDS011;63025;55.472;38.432;2022-11-11T02:41:27;36.42;;;18.27;;
74551;SDS011;63025;55.472;38.432;2022-11-11T02:44:30;38.95;;;16.65;;
74551;SDS011;63025;55.472;38.432;2022-11-11T02:47:14;35.63;;;17.00;;
74551;SDS011;63025;55.472;38.432;2022-11-11T02:49:59;36.10;;;16.63;;
74551;SDS011;63025;55.472;38.432;2022-11-11T02:52:43;36.33;;;16.75;;
74551;SDS011;63025;55.472;38.432;2022-11-11T02:55:27;36.13;;;16.73;;
74551;SDS011;63025;55.472;38.432;2022-11-11T02:58:12;35.40;;;16.02;;
74551;SDS011;63025;55.472;38.432;2022-11-11T03:00:57;33.92;;;17.05;;
74551;SDS011;63025;55.472;38.432;2022-11-11T03:03:42;41.03;;;17.33;;
74551;SDS011;63025;55.472;38.432;2022-11-11T03:06:26;30.70;;;15.10;;
74551;SDS011;63025;55.472;38.432;2022-11-11T03:09:10;32.28;;;16.30;;
74551;SDS011;63025;55.472;38.432;2022-11-11T03:11:54;33.08;;;16.75;;
74551;SDS011;63025;55.472;38.432;2022-11-11T03:14:39;32.10;;;15.38;;
74551;SDS011;63025;55.472;38.432;2022-11-11T03:17:23;31.13;;;15.82;;
74551;SDS011;63025;55.472;38.432;2022-11-11T03:20:22;32.50;;;15.75;;
74551;SDS011;63025;55.472;38.432;2022-11-11T03:23:26;34.30;;;15.88;;
74551;SDS011;63025;55.472;38.432;2022-11-11T03:26:10;29.13;;;14.85;;
74551;SDS011;63025;55.472;38.432;2022-11-11T03:28:54;29.52;;;15.15;;
74551;SDS011;63025;55.472;38.432;2022-11-11T03:31:39;27.58;;;14.68;;
74551;SDS011;63025;55.472;38.432;2022-11-11T03:34:23;26.95;;;14.15;;
74551;SDS011;63025;55.472;38.432;2022-11-11T03:37:08;27.27;;;14.23;;
74551;SDS011;63025;55.472;38.432;2022-11-11T03:40:12;28.38;;;13.60;;
74551;SDS011;63025;55.472;38.432;2022-11-11T03:42:57;27.75;;;13.45;;
74551;SDS011;63025;55.472;38.432;2022-11-11T03:45:41;25.73;;;12.95;;
74551;SDS011;63025;55.472;38.432;2022-11-11T03:48:28;24.83;;;13.00;;
74551;SDS011;63025;55.472;38.432;2022-11-11T03:51:15;24.23;;;12.02;;
74551;SDS011;63025;55.472;38.432;2022-11-11T03:53:59;25.58;;;13.20;;
74551;SDS011;63025;55.472;38.432;2022-11-11T03:56:43;23.40;;;12.35;;
74551;SDS011;63025;55.472;38.432;2022-11-11T03:59:28;27.67;;;12.77;;
74551;SDS011;63025;55.472;38.432;2022-11-11T04:02:12;24.45;;;12.65;;
74551;SDS011;63025;55.472;38.432;2022-11-11T04:05:32;26.50;;;12.70;;
74551;SDS011;63025;55.472;38.432;2022-11-11T04:08:35;22.98;;;11.65;;
74551;SDS011;63025;55.472;38.432;2022-11-11T04:11:40;24.03;;;11.47;;
74551;SDS011;63025;55.472;38.432;2022-11-11T04:14:27;23.38;;;11.82;;
74551;SDS011;63025;55.472;38.432;2022-11-11T04:17:30;22.77;;;12.05;;
74551;SDS011;63025;55.472;38.432;2022-11-11T04:20:14;20.27;;;11.18;;
74551;SDS011;63025;55.472;38.432;2022-11-11T04:23:17;23.02;;;11.80;;
74551;SDS011;63025;55.472;38.432;2022-11-11T04:26:02;19.40;;;10.90;;
74551;SDS011;63025;55.472;38.432;2022-11-11T04:28:46;20.85;;;11.55;;
74551;SDS011;63025;55.472;38.432;2022-11-11T04:31:49;22.95;;;11.88;;
74551;SDS011;63025;55.472;38.432;2022-11-11T04:34:56;20.92;;;11.85;;
74551;SDS011;63025;55.472;38.432;2022-11-11T04:37:45;24.52;;;11.75;;
74551;SDS011;63025;55.472;38.432;2022-11-11T04:40:32;22.88;;;12.18;;
74551;SDS011;63025;55.472;38.432;2022-11-11T04:43:35;23.42;;;11.85;;
74551;SDS011;63025;55.472;38.432;2022-11-11T04:46:40;22.80;;;12.05;;
74551;SDS011;63025;55.472;38.432;2022-11-11T04:49:24;22.38;;;11.95;;
74551;SDS011;63025;55.472;38.432;2022-11-11T04:52:09;22.95;;;12.38;;
74551;SDS011;63025;55.472;38.432;2022-11-11T04:55:11;24.63;;;12.73;;
74551;SDS011;63025;55.472;38.432;2022-11-11T04:58:16;25.45;;;12.45;;
74551;SDS011;63025;55.472;38.432;2022-11-11T05:01:01;28.95;;;13.30;;
74551;SDS011;63025;55.472;38.432;2022-11-11T05:03:46;28.33;;;13.27;;
74551;SDS011;63025;55.472;38.432;2022-11-11T05:06:30;25.65;;;13.40;;
74551;SDS011;63025;55.472;38.432;2022-11-11T05:09:33;29.08;;;13.70;;
74551;SDS011;63025;55.472;38.432;2022-11-11T05:12:18;30.02;;;13.82;;
74551;SDS011;63025;55.472;38.432;2022-11-11T05:15:02;31.38;;;13.38;;
74551;SDS011;63025;55.472;38.432;2022-11-11T05:18:05;28.60;;;13.37;;
74551;SDS011;63025;55.472;38.432;2022-11-11T05:21:17;26.98;;;13.57;;
74551;SDS011;63025;55.472;38.432;2022-11-11T05:24:06;34.60;;;14.15;;
74551;SDS011;63025;55.472;38.432;2022-11-11T05:27:09;31.13;;;14.60;;
74551;SDS011;63025;55.472;38.432;2022-11-11T05:29:54;28.63;;;14.38;;
74551;SDS011;63025;55.472;38.432;2022-11-11T05:32:39;29.73;;;13.68;;
74551;SDS011;63025;55.472;38.432;2022-11-11T05:35:23;32.33;;;14.18;;
74551;SDS011;63025;55.472;38.432;2022-11-11T05:38:08;27.83;;;12.55;;
74551;SDS011;63025;55.472;38.432;2022-11-11T05:41:05;27.83;;;13.50;;
74551;SDS011;63025;55.472;38.432;2022-11-11T05:43:51;28.17;;;13.82;;
74551;SDS011;63025;55.472;38.432;2022-11-11T05:46:35;30.80;;;13.50;;
74551;SDS011;63025;55.472;38.432;2022-11-11T05:49:19;28.52;;;13.23;;
74551;SDS011;63025;55.472;38.432;2022-11-11T05:52:04;28.10;;;12.65;;
74551;SDS011;63025;55.472;38.432;2022-11-11T05:54:49;25.45;;;12.27;;
74551;SDS011;63025;55.472;38.432;2022-11-11T05:57:34;26.60;;;12.90;;
74551;SDS011;63025;55.472;38.432;2022-11-11T06:00:18;26.58;;;11.93;;
74551;SDS011;63025;55.472;38.432;2022-11-11T06:03:02;24.63;;;12.32;;
74551;SDS011;63025;55.472;38.432;2022-11-11T06:05:48;24.15;;;12.38;;
74551;SDS011;63025;55.472;38.432;2022-11-11T06:08:33;20.83;;;11.70;;
74551;SDS011;63025;55.472;38.432;2022-11-11T06:11:17;25.48;;;11.85;;
74551;SDS011;63025;55.472;38.432;2022-11-11T06:14:02;26.33;;;11.80;;
74551;SDS011;63025;55.472;38.432;2022-11-11T06:16:47;24.02;;;11.85;;
74551;SDS011;63025;55.472;38.432;2022-11-11T06:19:31;25.38;;;11.90;;
74551;SDS011;63025;55.472;38.432;2022-11-11T06:22:16;24.63;;;11.80;;
74551;SDS011;63025;55.472;38.432;2022-11-11T06:25:20;27.10;;;11.38;;
74551;SDS011;63025;55.472;38.432;2022-11-11T06:28:24;27.17;;;11.80;;
74551;SDS011;63025;55.472;38.432;2022-11-11T06:31:09;24.00;;;11.45;;
74551;SDS011;63025;55.472;38.432;2022-11-11T06:33:55;21.77;;;11.27;;
74551;SDS011;63025;55.472;38.432;2022-11-11T06:36:39;19.65;;;10.93;;
74551;SDS011;63025;55.472;38.432;2022-11-11T06:39:23;23.58;;;10.80;;
74551;SDS011;63025;55.472;38.432;2022-11-11T06:42:07;22.92;;;11.07;;
74551;SDS011;63025;55.472;38.432;2022-11-11T06:44:52;23.40;;;10.40;;
74551;SDS011;63025;55.472;38.432;2022-11-11T06:47:36;21.73;;;11.00;;
74551;SDS011;63025;55.472;38.432;2022-11-11T06:50:20;17.02;;;9.30;;
74551;SDS011;63025;55.472;38.432;2022-11-11T06:53:11;20.00;;;10.02;;
74551;SDS011;63025;55.472;38.432;2022-11-11T06:55:57;23.25;;;9.70;;
74551;SDS011;63025;55.472;38.432;2022-11-11T06:58:41;17.20;;;9.65;;
74551;SDS011;63025;55.472;38.432;2022-11-11T07:01:26;19.98;;;9.45;;
74551;SDS011;63025;55.472;38.432;2022-11-11T07:04:10;19.98;;;9.40;;
74551;SDS011;63025;55.472;38.432;2022-11-11T07:06:54;19.58;;;9.80;;
74551;SDS011;63025;55.472;38.432;2022-11-11T07:09:38;19.88;;;9.55;;
74551;SDS011;63025;55.472;38.432;2022-11-11T07:12:23;18.38;;;9.30;;
74551;SDS011;63025;55.472;38.432;2022-11-11T07:15:07;18.30;;;9.13;;
74551;SDS011;63025;55.472;38.432;2022-11-11T07:17:52;17.05;;;9.35;;
74551;SDS011;63025;55.472;38.432;2022-11-11T07:20:36;17.40;;;8.52;;
74551;SDS011;63025;55.472;38.432;2022-11-11T07:23:21;17.20;;;9.40;;
74551;SDS011;63025;55.472;38.432;2022-11-11T07:26:05;19.23;;;9.48;;
74551;SDS011;63025;55.472;38.432;2022-11-11T07:28:49;20.20;;;9.27;;
74551;SDS011;63025;55.472;38.432;2022-11-11T07:31:34;17.13;;;9.05;;
74551;SDS011;63025;55.472;38.432;2022-11-11T07:34:18;17.02;;;9.10;;
74551;SDS011;63025;55.472;38.432;2022-11-11T07:37:02;15.80;;;8.68;;
74551;SDS011;63025;55.472;38.432;2022-11-11T07:39:47;17.52;;;9.05;;
74551;SDS011;63025;55.472;38.432;2022-11-11T07:42:31;14.80;;;8.35;;
74551;SDS011;63025;55.472;38.432;2022-11-11T07:45:19;19.80;;;9.55;;
74551;SDS011;63025;55.472;38.432;2022-11-11T07:48:03;20.10;;;9.63;;
74551;SDS011;63025;55.472;38.432;2022-11-11T07:50:50;15.48;;;9.20;;
74551;SDS011;63025;55.472;38.432;2022-11-11T07:53:35;16.58;;;9.35;;
74551;SDS011;63025;55.472;38.432;2022-11-11T07:56:20;20.65;;;9.63;;
74551;SDS011;63025;55.472;38.432;2022-11-11T07:59:04;17.65;;;9.48;;
74551;SDS011;63025;55.472;38.432;2022-11-11T08:01:48;21.48;;;10.48;;
74551;SDS011;63025;55.472;38.432;2022-11-11T08:04:32;22.45;;;10.55;;
74551;SDS011;63025;55.472;38.432;2022-11-11T08:07:17;20.33;;;10.48;;
74551;SDS011;63025;55.472;38.432;2022-11-11T08:10:02;20.13;;;10.80;;
74551;SDS011;63025;55.472;38.432;2022-11-11T08:12:52;23.85;;;11.63;;
74551;SDS011;63025;55.472;38.432;2022-11-11T08:15:56;24.00;;;10.90;;
74551;SDS011;63025;55.472;38.432;2022-11-11T08:18:41;22.58;;;10.65;;
74551;SDS011;63025;55.472;38.432;2022-11-11T08:21:26;25.67;;;12.25;;
74551;SDS011;63025;55.472;38.432;2022-11-11T08:24:10;21.63;;;10.13;;
74551;SDS011;63025;55.472;38.432;2022-11-11T08:26:55;24.05;;;11.38;;
74551;SDS011;63025;55.472;38.432;2022-11-11T08:29:39;26.40;;;11.98;;
74551;SDS011;63025;55.472;38.432;2022-11-11T08:32:23;22.42;;;12.02;;
74551;SDS011;63025;55.472;38.432;2022-11-11T08:35:08;23.67;;;11.73;;
74551;SDS011;63025;55.472;38.432;2022-11-11T08:37:52;22.77;;;11.13;;
74551;SDS011;63025;55.472;38.432;2022-11-11T08:40:37;21.63;;;10.73;;
74551;SDS011;63025;55.472;38.432;2022-11-11T08:43:21;22.77;;;10.52;;
74551;SDS011;63025;55.472;38.432;2022-11-11T08:46:06;22.25;;;10.88;;
74551;SDS011;63025;55.472;38.432;2022-11-11T08:48:50;22.42;;;10.90;;
74551;SDS011;63025;55.472;38.432;2022-11-11T08:51:34;23.08;;;10.45;;
74551;SDS011;63025;55.472;38.432;2022-11-11T08:54:18;19.58;;;10.07;;
74551;SDS011;63025;55.472;38.432;2022-11-11T08:57:03;19.85;;;10.18;;
74551;SDS011;63025;55.472;38.432;2022-11-11T08:59:47;19.13;;;10.30;;
74551;SDS011;63025;55.472;38.432;2022-11-11T09:02:32;20.15;;;10.25;;
74551;SDS011;63025;55.472;38.432;2022-11-11T09:05:16;21.15;;;10.68;;
74551;SDS011;63025;55.472;38.432;2022-11-11T09:08:01;22.00;;;11.45;;
74551;SDS011;63025;55.472;38.432;2022-11-11T09:10:45;18.58;;;11.02;;
74551;SDS011;63025;55.472;38.432;2022-11-11T09:13:30;23.90;;;10.90;;
74551;SDS011;63025;55.472;38.432;2022-11-11T09:16:14;22.98;;;10.85;;
74551;SDS011;63025;55.472;38.432;2022-11-11T09:18:58;21.95;;;10.93;;
74551;SDS011;63025;55.472;38.432;2022-11-11T09:21:42;16.38;;;9.90;;
74551;SDS011;63025;55.472;38.432;2022-11-11T09:24:27;18.17;;;10.45;;
74551;SDS011;63025;55.472;38.432;2022-11-11T09:27:11;15.23;;;9.63;;
74551;SDS011;63025;55.472;38.432;2022-11-11T09:29:55;18.52;;;10.40;;
74551;SDS011;63025;55.472;38.432;2022-11-11T09:32:40;16.92;;;8.88;;
74551;SDS011;63025;55.472;38.432;2022-11-11T09:35:24;17.40;;;9.18;;
74551;SDS011;63025;55.472;38.432;2022-11-11T09:38:08;15.55;;;8.48;;
74551;SDS011;63025;55.472;38.432;2022-11-11T09:44:03;13.30;;;7.57;;
74551;SDS011;63025;55.472;38.432;2022-11-11T09:52:50;11.10;;;6.53;;
74551;SDS011;63025;55.472;38.432;2022-11-11T09:55:41;10.18;;;5.95;;
74551;SDS011;63025;55.472;38.432;2022-11-11T09:58:31;10.38;;;5.93;;
74551;SDS011;63025;55.472;38.432;2022-11-11T10:01:26;11.77;;;6.15;;
74551;SDS011;63025;55.472;38.432;2022-11-11T10:07:08;10.32;;;5.63;;
74551;SDS011;63025;55.472;38.432;2022-11-11T10:13:31;9.55;;;5.57;;
74551;SDS011;63025;55.472;38.432;2022-11-11T10:25:17;7.38;;;4.80;;
74551;SDS011;63025;55.472;38.432;2022-11-11T10:28:07;9.30;;;5.15;;
74551;SDS011;63025;55.472;38.432;2022-11-11T10:30:58;7.28;;;4.95;;
74551;SDS011;63025;55.472;38.432;2022-11-11T10:36:41;8.85;;;5.18;;
74551;SDS011;63025;55.472;38.432;2022-11-11T10:42:33;8.10;;;4.85;;
74551;SDS011;63025;55.472;38.432;2022-11-11T10:45:26;8.35;;;5.43;;
74551;SDS011;63025;55.472;38.432;2022-11-11T10:48:15;7.65;;;5.20;;
74551;SDS011;63025;55.472;38.432;2022-11-11T10:51:08;7.90;;;5.03;;
74551;SDS011;63025;55.472;38.432;2022-11-11T10:53:58;10.20;;;5.50;;
74551;SDS011;63025;55.472;38.432;2022-11-11T10:59:44;9.50;;;6.10;;
74551;SDS011;63025;55.472;38.432;2022-11-11T11:05:36;9.95;;;5.93;;
74551;SDS011;63025;55.472;38.432;2022-11-11T11:08:28;10.20;;;6.28;;
74551;SDS011;63025;55.472;38.432;2022-11-11T11:11:32;10.65;;;6.15;;
74551;SDS011;63025;55.472;38.432;2022-11-11T11:14:23;10.60;;;6.70;;
74551;SDS011;63025;55.472;38.432;2022-11-11T11:17:22;9.52;;;6.05;;
74551;SDS011;63025;55.472;38.432;2022-11-11T11:20:14;11.07;;;6.78;;
74551;SDS011;63025;55.472;38.432;2022-11-11T11:23:03;13.20;;;6.95;;
74551;SDS011;63025;55.472;38.432;2022-11-11T11:25:51;9.93;;;6.57;;
74551;SDS011;63025;55.472;38.432;2022-11-11T11:28:56;10.65;;;6.93;;
74551;SDS011;63025;55.472;38.432;2022-11-11T11:31:44;12.20;;;7.10;;
74551;SDS011;63025;55.472;38.432;2022-11-11T11:34:41;11.70;;;6.95;;
74551;SDS011;63025;55.472;38.432;2022-11-11T11:37:35;11.48;;;7.05;;
74551;SDS011;63025;55.472;38.432;2022-11-11T11:43:45;11.68;;;6.90;;
74551;SDS011;63025;55.472;38.432;2022-11-11T11:46:39;11.82;;;7.03;;
74551;SDS011;63025;55.472;38.432;2022-11-11T11:55:37;11.60;;;6.78;;
74551;SDS011;63025;55.472;38.432;2022-11-11T12:11:07;12.70;;;7.68;;
74551;SDS011;63025;55.472;38.432;2022-11-11T12:20:44;14.38;;;9.05;;
74551;SDS011;63025;55.472;38.432;2022-11-11T12:23:57;13.50;;;8.43;;
74551;SDS011;63025;55.472;38.432;2022-11-11T12:33:04;16.33;;;9.65;;
74551;SDS011;63025;55.472;38.432;2022-11-11T12:38:48;13.95;;;9.82;;
74551;SDS011;63025;55.472;38.432;2022-11-11T12:45:00;16.85;;;10.60;;
74551;SDS011;63025;55.472;38.432;2022-11-11T12:54:14;17.90;;;10.02;;
74551;SDS011;63025;55.472;38.432;2022-11-11T12:57:15;13.95;;;9.15;;
74551;SDS011;63025;55.472;38.432;2022-11-11T13:12:50;13.65;;;8.50;;
74551;SDS011;63025;55.472;38.432;2022-11-11T13:15:37;11.70;;;7.75;;
74551;SDS011;63025;55.472;38.432;2022-11-11T13:18:38;13.10;;;7.65;;
74551;SDS011;63025;55.472;38.432;2022-11-11T13:21:29;12.50;;;7.70;;
74551;SDS011;63025;55.472;38.432;2022-11-11T13:24:21;13.07;;;7.63;;
74551;SDS011;63025;55.472;38.432;2022-11-11T13:27:11;12.57;;;7.78;;
74551;SDS011;63025;55.472;38.432;2022-11-11T13:36:33;15.00;;;8.00;;
74551;SDS011;63025;55.472;38.432;2022-11-11T13:39:29;16.67;;;9.05;;
74551;SDS011;63025;55.472;38.432;2022-11-11T13:42:22;14.43;;;8.25;;
74551;SDS011;63025;55.472;38.432;2022-11-11T13:45:27;13.68;;;8.50;;
74551;SDS011;63025;55.472;38.432;2022-11-11T13:48:20;13.65;;;8.38;;
74551;SDS011;63025;55.472;38.432;2022-11-11T13:51:18;12.57;;;7.95;;
74551;SDS011;63025;55.472;38.432;2022-11-11T13:54:21;13.90;;;8.13;;
74551;SDS011;63025;55.472;38.432;2022-11-11T13:59:57;13.60;;;7.95;;
74551;SDS011;63025;55.472;38.432;2022-11-11T14:02:47;14.40;;;8.45;;
74551;SDS011;63025;55.472;38.432;2022-11-11T14:08:57;13.60;;;8.18;;
74551;SDS011;63025;55.472;38.432;2022-11-11T14:11:41;15.95;;;8.93;;
74551;SDS011;63025;55.472;38.432;2022-11-11T14:17:13;15.30;;;8.50;;
74551;SDS011;63025;55.472;38.432;2022-11-11T14:23:32;18.13;;;8.55;;
74551;SDS011;63025;55.472;38.432;2022-11-11T14:26:21;15.27;;;8.50;;
74551;SDS011;63025;55.472;38.432;2022-11-11T14:29:13;16.95;;;8.93;;
74551;SDS011;63025;55.472;38.432;2022-11-11T14:32:16;17.75;;;9.23;;
74551;SDS011;63025;55.472;38.432;2022-11-11T14:38:26;17.30;;;8.82;;
74551;SDS011;63025;55.472;38.432;2022-11-11T14:47:20;18.08;;;9.95;;
74551;SDS011;63025;55.472;38.432;2022-11-11T14:53:28;17.08;;;9.73;;
74551;SDS011;63025;55.472;38.432;2022-11-11T14:56:19;15.45;;;9.18;;
74551;SDS011;63025;55.472;38.432;2022-11-11T14:59:05;17.75;;;9.18;;
74551;SDS011;63025;55.472;38.432;2022-11-11T15:01:52;15.60;;;8.57;;
74551;SDS011;63025;55.472;38.432;2022-11-11T15:04:38;17.23;;;9.23;;
74551;SDS011;63025;55.472;38.432;2022-11-11T15:07:28;16.77;;;9.02;;
74551;SDS011;63025;55.472;38.432;2022-11-11T15:13:17;14.07;;;8.03;;
74551;SDS011;63025;55.472;38.432;2022-11-11T15:19:24;17.98;;;10.60;;
74551;SDS011;63025;55.472;38.432;2022-11-11T15:22:22;20.88;;;16.15;;
74551;SDS011;63025;55.472;38.432;2022-11-11T15:37:34;13.20;;;7.93;;
74551;SDS011;63025;55.472;38.432;2022-11-11T15:40:20;10.18;;;6.22;;
74551;SDS011;63025;55.472;38.432;2022-11-11T15:43:09;10.55;;;6.43;;
74551;SDS011;63025;55.472;38.432;2022-11-11T15:46:06;8.95;;;6.20;;
74551;SDS011;63025;55.472;38.432;2022-11-11T15:48:50;12.07;;;6.35;;
74551;SDS011;63025;55.472;38.432;2022-11-11T15:51:35;11.35;;;7.55;;
74551;SDS011;63025;55.472;38.432;2022-11-11T15:54:20;10.27;;;8.25;;
74551;SDS011;63025;55.472;38.432;2022-11-11T16:00:18;9.27;;;5.30;;
74551;SDS011;63025;55.472;38.432;2022-11-11T16:03:13;8.68;;;5.57;;
74551;SDS011;63025;55.472;38.432;2022-11-11T16:06:03;8.25;;;5.70;;
74551;SDS011;63025;55.472;38.432;2022-11-11T16:08:52;8.60;;;5.10;;
74551;SDS011;63025;55.472;38.432;2022-11-11T16:11:40;9.73;;;5.25;;
74551;SDS011;63025;55.472;38.432;2022-11-11T16:14:36;14.45;;;9.90;;
74551;SDS011;63025;55.472;38.432;2022-11-11T16:17:36;83.55;;;46.78;;
74551;SDS011;63025;55.472;38.432;2022-11-11T16:20:26;25.95;;;17.88;;
74551;SDS011;63025;55.472;38.432;2022-11-11T16:23:15;9.48;;;6.07;;
74551;SDS011;63025;55.472;38.432;2022-11-11T16:26:02;9.98;;;6.03;;
74551;SDS011;63025;55.472;38.432;2022-11-11T16:28:54;9.40;;;5.50;;
74551;SDS011;63025;55.472;38.432;2022-11-11T16:31:41;13.05;;;4.82;;
74551;SDS011;63025;55.472;38.432;2022-11-11T16:37:12;7.32;;;4.40;;
74551;SDS011;63025;55.472;38.432;2022-11-11T16:43:24;7.85;;;4.43;;
74551;SDS011;63025;55.472;38.432;2022-11-11T16:46:12;7.15;;;4.22;;
74551;SDS011;63025;55.472;38.432;2022-11-11T16:48:58;6.88;;;4.30;;
74551;SDS011;63025;55.472;38.432;2022-11-11T16:51:54;9.10;;;4.45;;
74551;SDS011;63025;55.472;38.432;2022-11-11T16:54:47;12.38;;;8.07;;
74551;SDS011;63025;55.472;38.432;2022-11-11T16:57:34;20.73;;;14.13;;
74551;SDS011;63025;55.472;38.432;2022-11-11T17:00:26;23.90;;;21.30;;
74551;SDS011;63025;55.472;38.432;2022-11-11T17:03:14;8.68;;;7.20;;
74551;SDS011;63025;55.472;38.432;2022-11-11T17:06:06;9.27;;;5.28;;
74551;SDS011;63025;55.472;38.432;2022-11-11T17:08:52;7.78;;;4.75;;
74551;SDS011;63025;55.472;38.432;2022-11-11T17:14:21;9.13;;;4.70;;
74551;SDS011;63025;55.472;38.432;2022-11-11T17:17:07;6.82;;;3.65;;
74551;SDS011;63025;55.472;38.432;2022-11-11T17:19:53;6.00;;;3.90;;
74551;SDS011;63025;55.472;38.432;2022-11-11T17:22:52;7.85;;;4.28;;
74551;SDS011;63025;55.472;38.432;2022-11-11T17:25:38;7.72;;;4.78;;
74551;SDS011;63025;55.472;38.432;2022-11-11T17:28:22;9.82;;;4.10;;
74551;SDS011;63025;55.472;38.432;2022-11-11T17:31:08;7.45;;;4.13;;
74551;SDS011;63025;55.472;38.432;2022-11-11T17:33:54;6.88;;;4.25;;
74551;SDS011;63025;55.472;38.432;2022-11-11T17:36:38;12.13;;;7.80;;
74551;SDS011;63025;55.472;38.432;2022-11-11T17:39:22;11.88;;;9.32;;
74551;SDS011;63025;55.472;38.432;2022-11-11T17:42:06;10.38;;;7.18;;
74551;SDS011;63025;55.472;38.432;2022-11-11T17:44:51;8.55;;;5.35;;
74551;SDS011;63025;55.472;38.432;2022-11-11T17:47:36;7.18;;;4.38;;
74551;SDS011;63025;55.472;38.432;2022-11-11T17:50:21;6.82;;;4.32;;
74551;SDS011;63025;55.472;38.432;2022-11-11T17:53:05;9.25;;;6.55;;
74551;SDS011;63025;55.472;38.432;2022-11-11T17:55:50;7.55;;;4.07;;
74551;SDS011;63025;55.472;38.432;2022-11-11T17:58:35;8.60;;;3.33;;
74551;SDS011;63025;55.472;38.432;2022-11-11T18:01:20;6.88;;;3.53;;
74551;SDS011;63025;55.472;38.432;2022-11-11T18:04:04;5.55;;;3.60;;
74551;SDS011;63025;55.472;38.432;2022-11-11T18:06:48;8.68;;;4.20;;
74551;SDS011;63025;55.472;38.432;2022-11-11T18:09:33;8.73;;;4.00;;
74551;SDS011;63025;55.472;38.432;2022-11-11T18:12:17;6.28;;;4.10;;
74551;SDS011;63025;55.472;38.432;2022-11-11T18:15:01;7.05;;;3.70;;
74551;SDS011;63025;55.472;38.432;2022-11-11T18:17:46;7.43;;;3.60;;
74551;SDS011;63025;55.472;38.432;2022-11-11T18:20:30;8.68;;;4.00;;
74551;SDS011;63025;55.472;38.432;2022-11-11T18:23:14;7.93;;;4.00;;
74551;SDS011;63025;55.472;38.432;2022-11-11T18:25:59;7.68;;;4.72;;
74551;SDS011;63025;55.472;38.432;2022-11-11T18:28:43;8.10;;;4.80;;
74551;SDS011;63025;55.472;38.432;2022-11-11T18:31:28;9.25;;;4.78;;
74551;SDS011;63025;55.472;38.432;2022-11-11T18:34:12;7.32;;;4.72;;
74551;SDS011;63025;55.472;38.432;2022-11-11T18:36:57;8.73;;;4.55;;
74551;SDS011;63025;55.472;38.432;2022-11-11T18:39:41;7.20;;;4.22;;
74551;SDS011;63025;55.472;38.432;2022-11-11T18:42:26;8.20;;;4.50;;
74551;SDS011;63025;55.472;38.432;2022-11-11T18:45:10;8.07;;;4.70;;
74551;SDS011;63025;55.472;38.432;2022-11-11T18:47:54;10.38;;;4.72;;
74551;SDS011;63025;55.472;38.432;2022-11-11T18:50:38;7.60;;;5.10;;
74551;SDS011;63025;55.472;38.432;2022-11-11T18:53:23;7.55;;;4.90;;
74551;SDS011;63025;55.472;38.432;2022-11-11T18:56:09;8.93;;;4.75;;
74551;SDS011;63025;55.472;38.432;2022-11-11T18:58:56;9.82;;;5.30;;
74551;SDS011;63025;55.472;38.432;2022-11-11T19:01:42;9.93;;;5.25;;
74551;SDS011;63025;55.472;38.432;2022-11-11T19:04:26;7.88;;;4.45;;
74551;SDS011;63025;55.472;38.432;2022-11-11T19:07:11;8.98;;;5.25;;